Airfield :
LOGIN :

Register | Disclaimer

   EN    FR    IT 

 










Legend :    VFR   Marginal VFR   IFR   Intensive IFR   Very Intensive IFR
Visi :
Ceiling :
>= 8 km
>= 3000ft
5 to 8 km
1000 to 3000 ft
1500m to 5 km
500 to 1000 ft
800 to 1500m
200 to 500 ft
< 800m
< 200 ft
Symbols :   Thunderstorms  Fog  Heavy snow  Heavy precipitations  Wind > 20 kt
SIGMETs :     Misc.  Thunderstorms  Icing  Turbulence  Mountain Waves  Volcanic Ashes






- Airport Elevation : 479 ft
- IATA code : KEV


EFHA - Halli

CURRENT METAR :
  • 270950Z 25007KT 190V270 CAVOK 16/08 Q1021 RESHRA

EXPIRED METARs :
  • 270920Z 21010KT 170V250 CAVOK 19/06 Q1021
  • 270850Z 22011KT 160V260 CAVOK 19/05 Q1022
  • 270820Z 20010KT 150V240 CAVOK 19/05 Q1022
  • 270750Z 21013KT CAVOK 18/05 Q1022
  • 270720Z 20012KT 160V230 CAVOK 18/05 Q1023

TAF TAF EFHA
Valid from the 27 at 09:00 until the 27 at 13:00 UTC


270823Z 2709/2713 21012KT CAVOK
TEMPO 2711/2713 FEW050CB



MET'MAP, your aeronautical weather chart ! - Copyright ORBIFLY December 2007 - Disclaimer

ORBIFLY MET'MAP TEAM :

Programming & Development : Alexandra Zaïnal
Concept & original design : Baudouin d'Aumeries
Assistance for programming : Marc-Olivier Méhu
Technical & hardware support : Manuel Goepfert

Contact : metmap@orbifly.com




SOURCES & CREDITS :

   NOAA